Time;durP1;ratioP1;P1;durP2;ratioP2;P2;SDS_P1;SDS_P2;PMS_P1;PMS_P2;Temp;Humidity;BMP_temperature;BMP_pressure;BME280_temperature;BME280_humidity;BME280_pressure;Samples;Min_cycle;Max_cycle;Signal;HPM_P1;HPM_P2
2021/07/22 00:00:46;;;;;;;;;;;;;;;25.25;44.65;101851.75;5025999;28;97195;-77
2021/07/22 00:03:13;;;;;;;;;;;;;;;25.27;44.65;101849.78;5018739;28;97039;-77
2021/07/22 00:05:39;;;;;;;;;;;;;;;25.09;45.45;101840.41;5035098;28;99443;-77
2021/07/22 00:08:11;;;;;;;;;;;;;;;24.73;45.99;101847.69;5018115;28;97232;-77
2021/07/22 00:10:38;;;;;;;;;;;;;;;24.50;46.40;101840.50;5021298;28;97689;-78
2021/07/22 00:13:04;;;;;;;;;;;;;;;24.74;46.02;101841.31;5023945;28;99241;-78
2021/07/22 00:15:30;;;;;;;;;;;;;;;24.65;46.17;101842.03;5034336;28;99104;-77
2021/07/22 00:17:56;;;;;;;;;;;;;;;24.53;46.64;101842.97;5032942;27;97005;-78
2021/07/22 00:20:23;;;;;;;;;;;;;;;24.46;46.54;101836.31;5032846;27;97037;-76
2021/07/22 00:22:49;;;;;;;;;;;;;;;24.57;46.72;101837.19;5016519;28;99406;-77
2021/07/22 00:25:16;;;;;;;;;;;;;;;24.61;46.43;101843.25;5030349;28;99340;-77
2021/07/22 00:27:43;;;;;;;;;;;;;;;24.71;46.21;101838.84;5029813;27;97683;-76
2021/07/22 00:30:09;;;;;;;;;;;;;;;24.45;46.73;101838.16;5036957;27;96946;-77
2021/07/22 00:32:36;;;;;;;;;;;;;;;24.70;46.20;101844.34;5033987;28;98160;-77
2021/07/22 00:35:02;;;;;;;;;;;;;;;24.74;46.46;101835.91;5023315;28;97880;-77
2021/07/22 00:37:29;;;;;;;;;;;;;;;24.84;46.08;101836.91;5014894;28;97498;-77
2021/07/22 00:39:55;;;;;;;;;;;;;;;24.94;46.06;101837.09;5032033;28;98789;-77
2021/07/22 00:42:23;;;;;;;;;;;;;;;24.78;46.22;101841.94;5025509;28;98969;-76
2021/07/22 00:44:49;;;;;;;;;;;;;;;24.89;46.19;101834.72;5030910;28;98218;-77
2021/07/22 00:47:15;;;;;;;;;;;;;;;25.00;45.75;101837.47;5013886;28;96792;-78
2021/07/22 00:49:41;;;;;;;;;;;;;;;24.87;46.35;101839.38;5027813;28;96918;-77
2021/07/22 00:52:08;;;;;;;;;;;;;;;24.90;46.42;101835.59;5028237;28;97854;-77
2021/07/22 00:54:34;;;;;;;;;;;;;;;25.01;46.04;101828.34;5031505;28;99193;-78
2021/07/22 00:57:00;;;;;;;;;;;;;;;24.45;47.33;101832.75;5018907;28;97147;-77
2021/07/22 00:59:28;;;;;;;;;;;;;;;24.70;46.62;101834.41;5016127;28;98609;-77
2021/07/22 01:01:54;;;;;;;;;;;;;;;24.50;46.98;101838.66;5022301;27;101197;-78
2021/07/22 01:04:20;;;;;;;;;;;;;;;24.58;46.29;101838.06;5027188;28;99177;-79
2021/07/22 01:06:46;;;;;;;;;;;;;;;24.80;46.33;101840.84;5014395;28;96863;-78
2021/07/22 01:09:13;;;;;;;;;;;;;;;24.68;46.20;101835.53;5019567;27;97971;-77
2021/07/22 01:11:39;;;;;;;;;;;;;;;24.77;46.38;101829.38;5026436;28;99230;-77
2021/07/22 01:14:05;;;;;;;;;;;;;;;24.68;46.41;101830.94;5024269;28;99348;-77
2021/07/22 01:16:33;;;;;;;;;;;;;;;24.66;46.30;101826.66;5012910;28;96768;-77
2021/07/22 01:18:59;;;;;;;;;;;;;;;24.76;46.29;101833.06;5025450;28;97389;-77
2021/07/22 01:21:27;;;;;;;;;;;;;;;24.63;46.81;101823.22;5022820;28;101775;-77
2021/07/22 01:23:53;;;;;;;;;;;;;;;24.66;46.83;101819.44;5026483;27;98865;-77
2021/07/22 01:26:20;;;;;;;;;;;;;;;24.57;46.78;101823.69;5013618;27;96967;-77
2021/07/22 01:28:47;;;;;;;;;;;;;;;24.60;46.49;101833.41;5023030;28;97153;-77
2021/07/22 01:31:13;;;;;;;;;;;;;;;24.75;46.45;101825.94;5033100;28;99277;-77
2021/07/22 01:33:39;;;;;;;;;;;;;;;24.79;46.74;101828.31;5027804;28;98218;-77
2021/07/22 01:36:05;;;;;;;;;;;;;;;24.84;46.17;101827.94;5015038;28;96846;-77
2021/07/22 01:38:33;;;;;;;;;;;;;;;24.77;46.60;101824.84;5024590;27;99370;-77
2021/07/22 01:41:03;;;;;;;;;;;;;;;24.76;46.28;101822.25;5030289;27;99011;-77
2021/07/22 01:43:29;;;;;;;;;;;;;;;24.48;46.72;101823.56;5029768;28;98124;-77
2021/07/22 01:45:55;;;;;;;;;;;;;;;24.44;46.79;101820.22;5032593;28;97032;-78
2021/07/22 01:48:22;;;;;;;;;;;;;;;24.63;46.29;101815.09;5028325;28;96838;-78
2021/07/22 01:50:48;;;;;;;;;;;;;;;24.50;46.46;101817.03;5020928;27;99142;-78
2021/07/22 01:53:14;;;;;;;;;;;;;;;24.59;46.51;101818.19;5016246;28;98784;-78
2021/07/22 01:55:42;;;;;;;;;;;;;;;24.62;46.45;101812.50;5027288;28;98525;-78
2021/07/22 01:58:08;;;;;;;;;;;;;;;24.64;46.48;101813.25;5016036;28;96938;-78
2021/07/22 02:00:34;;;;;;;;;;;;;;;24.51;46.62;101818.75;5029307;28;99014;-78
2021/07/22 02:03:00;;;;;;;;;;;;;;;24.52;46.35;101823.19;5014106;28;99097;-78
2021/07/22 02:05:27;;;;;;;;;;;;;;;24.47;46.62;101811.03;5014015;28;96771;-77
2021/07/22 02:07:53;;;;;;;;;;;;;;;23.84;48.23;101817.56;5013503;28;97008;-77
2021/07/22 02:10:20;;;;;;;;;;;;;;;24.03;47.91;101823.31;5031442;27;97983;-77
2021/07/22 02:12:47;;;;;;;;;;;;;;;24.10;47.81;101821.88;5012368;28;99525;-77
2021/07/22 02:15:14;;;;;;;;;;;;;;;24.07;47.74;101819.44;5026761;27;97263;-77
2021/07/22 02:17:40;;;;;;;;;;;;;;;24.16;47.62;101816.00;5027362;28;96956;-77
2021/07/22 02:20:07;;;;;;;;;;;;;;;24.03;47.77;101815.22;5025599;28;98969;-77
2021/07/22 02:22:33;;;;;;;;;;;;;;;23.84;48.73;101822.97;5010636;28;99229;-77
2021/07/22 02:24:59;;;;;;;;;;;;;;;23.98;48.16;101825.50;5029226;28;96891;-77
2021/07/22 02:27:26;;;;;;;;;;;;;;;23.97;48.27;101828.31;5019145;27;97225;-77
2021/07/22 02:29:53;;;;;;;;;;;;;;;23.95;48.63;101830.28;5017494;28;99340;-77
2021/07/22 02:32:20;;;;;;;;;;;;;;;23.78;48.93;101829.69;5013777;28;99160;-77
2021/07/22 02:34:46;;;;;;;;;;;;;;;24.05;48.34;101826.78;5034355;27;96803;-78
2021/07/22 02:37:12;;;;;;;;;;;;;;;24.01;48.37;101838.78;5021921;27;97175;-77
2021/07/22 02:39:39;;;;;;;;;;;;;;;23.69;49.16;101832.22;5024491;28;99159;-78
2021/07/22 02:42:05;;;;;;;;;;;;;;;24.14;48.50;101825.22;5017271;28;99416;-77
2021/07/22 02:44:36;;;;;;;;;;;;;;;24.27;48.08;101822.50;5034106;28;96932;-77
2021/07/22 02:47:04;;;;;;;;;;;;;;;24.32;47.75;101826.56;5029628;28;97275;-76
2021/07/22 02:49:30;;;;;;;;;;;;;;;24.25;48.14;101825.28;5030388;28;98926;-77
2021/07/22 02:51:56;;;;;;;;;;;;;;;24.31;47.79;101822.13;5017218;28;99215;-77
2021/07/22 02:54:23;;;;;;;;;;;;;;;24.28;47.78;101821.50;5033850;28;96849;-77
2021/07/22 02:56:49;;;;;;;;;;;;;;;24.09;48.33;101827.41;5029934;27;97733;-77
2021/07/22 02:59:15;;;;;;;;;;;;;;;23.99;48.29;101819.13;5021078;28;99105;-77
2021/07/22 03:01:42;;;;;;;;;;;;;;;24.07;48.32;101824.81;5019249;28;99264;-77
2021/07/22 03:04:09;;;;;;;;;;;;;;;23.99;49.28;101824.53;5030067;28;97607;-77
2021/07/22 03:06:35;;;;;;;;;;;;;;;24.10;48.56;101827.28;5024038;28;97879;-78
2021/07/22 03:09:02;;;;;;;;;;;;;;;24.15;48.35;101827.81;5039331;27;98240;-77
2021/07/22 03:11:28;;;;;;;;;;;;;;;24.01;49.50;101828.00;5039125;28;97990;-77
2021/07/22 03:13:54;;;;;;;;;;;;;;;23.92;49.95;101823.25;5034757;27;97073;-76
2021/07/22 03:16:20;;;;;;;;;;;;;;;23.91;50.11;101826.94;5027173;28;96858;-77
2021/07/22 03:18:46;;;;;;;;;;;;;;;23.89;50.46;101825.34;5030993;27;99262;-77
2021/07/22 03:21:14;;;;;;;;;;;;;;;23.81;50.42;101823.22;5032265;27;99192;-77
2021/07/22 03:23:40;;;;;;;;;;;;;;;23.78;50.52;101823.41;5023121;27;98258;-77
2021/07/22 03:26:06;;;;;;;;;;;;;;;23.77;50.79;101827.09;5027978;27;97245;-78
2021/07/22 03:28:33;;;;;;;;;;;;;;;23.73;50.88;101834.56;5032918;28;98948;-78
2021/07/22 03:30:59;;;;;;;;;;;;;;;23.72;51.09;101829.28;5024250;28;98785;-78
2021/07/22 03:33:26;;;;;;;;;;;;;;;23.75;50.79;101823.66;5023199;27;97677;-78
2021/07/22 03:35:52;;;;;;;;;;;;;;;23.83;50.49;101823.94;5018578;28;96883;-78
2021/07/22 03:38:20;;;;;;;;;;;;;;;23.84;50.94;101833.75;5023533;28;99342;-77
2021/07/22 03:40:46;;;;;;;;;;;;;;;23.77;51.10;101822.56;5019223;28;98935;-78
2021/07/22 03:43:13;;;;;;;;;;;;;;;23.90;50.61;101824.34;5033230;28;97193;-77
2021/07/22 03:45:39;;;;;;;;;;;;;;;23.89;49.40;101828.91;5016868;28;97048;-76
2021/07/22 03:48:05;;;;;;;;;;;;;;;23.96;49.43;101827.44;5025607;28;98912;-76
2021/07/22 03:50:31;;;;;;;;;;;;;;;23.89;49.17;101828.91;5020988;28;99294;-76
2021/07/22 03:52:58;;;;;;;;;;;;;;;24.04;48.80;101827.75;5022254;28;97757;-76
2021/07/22 03:55:26;;;;;;;;;;;;;;;24.01;48.39;101825.28;5031909;27;96891;-76
2021/07/22 03:57:53;;;;;;;;;;;;;;;24.07;49.23;101824.81;5017538;28;99480;-76
2021/07/22 04:00:19;;;;;;;;;;;;;;;24.07;48.82;101824.81;5017777;28;98834;-76
2021/07/22 04:02:45;;;;;;;;;;;;;;;24.03;49.53;101826.00;5014624;28;97040;-76
2021/07/22 04:05:11;;;;;;;;;;;;;;;24.12;49.32;101822.63;5015120;27;98111;-76
2021/07/22 04:07:38;;;;;;;;;;;;;;;24.20;49.26;101828.34;5017973;28;99224;-78
2021/07/22 04:10:04;;;;;;;;;;;;;;;24.23;49.29;101830.81;5026229;28;98916;-78
2021/07/22 04:12:32;;;;;;;;;;;;;;;24.28;49.01;101822.38;5018417;28;96817;-76
2021/07/22 04:14:58;;;;;;;;;;;;;;;24.28;48.93;101830.47;5032022;27;96965;-77
2021/07/22 04:17:25;;;;;;;;;;;;;;;24.20;49.05;101831.06;5027435;27;99221;-79
2021/07/22 04:19:51;;;;;;;;;;;;;;;24.14;49.13;101830.63;5019522;28;99542;-78
2021/07/22 04:22:17;;;;;;;;;;;;;;;24.32;48.68;101833.78;5015232;28;97206;-78
2021/07/22 04:24:44;;;;;;;;;;;;;;;24.09;49.27;101833.66;5019976;28;97425;-78
2021/07/22 04:27:10;;;;;;;;;;;;;;;23.97;49.22;101839.09;5013233;28;98954;-79
2021/07/22 04:29:38;;;;;;;;;;;;;;;24.22;48.66;101837.19;5022689;27;99123;-78
2021/07/22 04:32:04;;;;;;;;;;;;;;;23.83;49.55;101832.03;5018912;28;97367;-77
2021/07/22 04:34:31;;;;;;;;;;;;;;;23.81;49.53;101836.69;5016934;28;98749;-78
2021/07/22 04:36:57;;;;;;;;;;;;;;;24.21;48.39;101837.31;5020368;28;98230;-78
2021/07/22 04:39:23;;;;;;;;;;;;;;;24.31;47.65;101838.34;5028852;27;98977;-78
2021/07/22 04:41:49;;;;;;;;;;;;;;;24.57;46.94;101839.91;5052214;27;96949;-78
2021/07/22 04:44:16;;;;;;;;;;;;;;;24.36;47.72;101832.56;5020992;27;97120;-79
2021/07/22 04:46:44;;;;;;;;;;;;;;;24.06;48.64;101833.91;5028505;27;98323;-78
2021/07/22 04:49:10;;;;;;;;;;;;;;;24.42;47.52;101830.25;5018417;28;98795;-78
2021/07/22 04:51:36;;;;;;;;;;;;;;;24.39;47.69;101827.81;5026402;28;96903;-79
2021/07/22 04:54:02;;;;;;;;;;;;;;;24.13;48.42;101842.41;5025976;27;97044;-78
2021/07/22 04:56:29;;;;;;;;;;;;;;;24.12;48.58;101838.84;5019155;28;98851;-78
2021/07/22 04:58:55;;;;;;;;;;;;;;;24.04;48.87;101840.38;5023568;27;99300;-78
2021/07/22 05:01:21;;;;;;;;;;;;;;;24.07;48.63;101840.16;5014750;27;96888;-77
2021/07/22 05:03:48;;;;;;;;;;;;;;;23.99;48.98;101838.03;5014415;28;96855;-76
2021/07/22 05:06:15;;;;;;;;;;;;;;;24.26;48.15;101839.66;5012824;28;99404;-78
2021/07/22 05:08:43;;;;;;;;;;;;;;;24.51;47.62;101844.91;5017211;28;98709;-77
2021/07/22 05:11:10;;;;;;;;;;;;;;;24.52;47.61;101842.09;5023001;28;96941;-76
2021/07/22 05:13:39;;;;;;;;;;;;;;;24.29;47.89;101851.09;5023126;27;97374;-79
2021/07/22 05:16:05;;;;;;;;;;;;;;;24.70;47.14;101847.91;5015949;28;101450;-79
2021/07/22 05:18:31;;;;;;;;;;;;;;;24.77;46.78;101846.47;5022046;28;99812;-80
2021/07/22 05:20:59;;;;;;;;;;;;;;;24.81;46.63;101845.22;5032536;28;96913;-79
2021/07/22 05:23:25;;;;;;;;;;;;;;;24.69;46.61;101851.59;5017761;27;97640;-79
2021/07/22 05:25:51;;;;;;;;;;;;;;;24.78;46.57;101845.50;5022303;28;99772;-79
2021/07/22 05:28:18;;;;;;;;;;;;;;;24.94;46.06;101840.63;5030812;27;98783;-77
2021/07/22 05:30:44;;;;;;;;;;;;;;;25.12;46.12;101845.59;5044630;27;99053;-79
2021/07/22 05:33:11;;;;;;;;;;;;;;;25.19;45.68;101842.28;5028296;28;98931;-77
2021/07/22 05:35:37;;;;;;;;;;;;;;;25.04;46.20;101846.19;5020910;28;98897;-77
2021/07/22 05:38:05;;;;;;;;;;;;;;;25.29;45.69;101842.38;5018885;28;99945;-77
2021/07/22 05:40:31;;;;;;;;;;;;;;;25.38;45.35;101842.53;5016992;27;97024;-77
2021/07/22 05:42:58;;;;;;;;;;;;;;;25.57;44.89;101841.03;5023989;28;97712;-77
2021/07/22 05:45:24;;;;;;;;;;;;;;;25.57;44.20;101841.91;5013799;28;98862;-77
2021/07/22 05:47:50;;;;;;;;;;;;;;;25.78;43.86;101833.88;5013465;28;99325;-77
2021/07/22 05:50:16;;;;;;;;;;;;;;;25.46;44.06;101843.75;5022448;28;97211;-76
2021/07/22 05:52:43;;;;;;;;;;;;;;;25.36;43.26;101841.78;5013200;28;97486;-77
2021/07/22 05:55:11;;;;;;;;;;;;;;;25.01;44.20;101828.34;5018904;28;99275;-76
2021/07/22 05:57:37;;;;;;;;;;;;;;;24.52;44.58;101835.84;5019770;28;99370;-77
2021/07/22 06:00:04;;;;;;;;;;;;;;;24.99;43.31;101843.00;5028341;28;96990;-79
2021/07/22 06:02:30;;;;;;;;;;;;;;;25.01;43.52;101839.16;5014472;28;97825;-77
2021/07/22 06:04:56;;;;;;;;;;;;;;;24.58;44.27;101832.66;5013092;27;99192;-77
2021/07/22 06:07:23;;;;;;;;;;;;;;;24.93;43.49;101840.78;5030716;27;98170;-78
2021/07/22 06:09:49;;;;;;;;;;;;;;;25.54;42.24;101841.25;5022130;28;96865;-78
2021/07/22 06:12:17;;;;;;;;;;;;;;;26.15;41.19;101834.38;5022962;28;98845;-76
2021/07/22 06:14:53;;;;;;;;;;;;;;;26.30;40.79;101838.56;5017294;27;99244;-79
2021/07/22 06:17:19;;;;;;;;;;;;;;;26.67;39.44;101838.13;5019830;28;96857;-81
2021/07/22 06:19:46;;;;;;;;;;;;;;;26.72;39.17;101830.44;5017523;28;96861;-78
2021/07/22 06:22:12;;;;;;;;;;;;;;;26.75;39.00;101838.31;5032395;27;97018;-78
2021/07/22 06:24:38;;;;;;;;;;;;;;;26.72;39.55;101835.84;5020393;28;98873;-77
2021/07/22 06:27:05;;;;;;;;;;;;;;;26.87;39.13;101838.13;5021653;28;99459;-79
2021/07/22 06:29:32;;;;;;;;;;;;;;;26.98;38.66;101838.06;5017944;28;96781;-78
2021/07/22 06:31:59;;;;;;;;;;;;;;;27.05;38.68;101837.53;5020698;28;97952;-78
2021/07/22 06:34:25;;;;;;;;;;;;;;;27.05;38.47;101834.81;5017053;27;99407;-77
2021/07/22 06:36:53;;;;;;;;;;;;;;;27.12;38.11;101839.56;5019219;27;100986;-78
2021/07/22 06:39:19;;;;;;;;;;;;;;;27.09;38.15;101842.56;5025033;27;98017;-78
2021/07/22 06:41:46;;;;;;;;;;;;;;;27.13;38.27;101843.13;5020777;27;96983;-76
2021/07/22 06:44:12;;;;;;;;;;;;;;;26.94;38.77;101843.91;5030330;27;100518;-79
2021/07/22 06:46:40;;;;;;;;;;;;;;;26.98;39.23;101841.78;5018763;28;99100;-79
2021/07/22 06:49:06;;;;;;;;;;;;;;;27.24;38.74;101841.19;5016039;27;97079;-78
2021/07/22 06:51:33;;;;;;;;;;;;;;;27.77;37.51;101844.56;5020842;27;97408;-78
2021/07/22 06:54:00;;;;;;;;;;;;;;;27.67;37.76;101842.81;5018763;27;99231;-78
2021/07/22 06:56:26;;;;;;;;;;;;;;;27.46;38.44;101847.44;5016799;28;99182;-76
2021/07/22 06:58:52;;;;;;;;;;;;;;;27.35;38.96;101846.53;5027218;27;97094;-77
2021/07/22 07:01:19;;;;;;;;;;;;;;;27.43;38.69;101848.59;5020849;28;98629;-76
2021/07/22 07:03:46;;;;;;;;;;;;;;;27.60;38.63;101847.94;5015685;28;99234;-75
2021/07/22 07:06:13;;;;;;;;;;;;;;;27.59;38.71;101848.06;5015130;27;98817;-75
2021/07/22 07:08:39;;;;;;;;;;;;;;;27.56;38.45;101846.53;5018054;28;97555;-73
2021/07/22 07:11:07;;;;;;;;;;;;;;;27.60;38.08;101841.66;5025742;28;97877;-75
2021/07/22 07:13:33;;;;;;;;;;;;;;;27.66;38.22;101841.97;5019380;27;98890;-75
2021/07/22 07:15:59;;;;;;;;;;;;;;;27.72;37.78;101843.25;5017487;28;99366;-75
2021/07/22 07:18:25;;;;;;;;;;;;;;;27.64;38.08;101841.22;5017515;28;97160;-76
2021/07/22 07:20:53;;;;;;;;;;;;;;;27.78;37.91;101840.00;5021063;27;97732;-75
2021/07/22 07:23:19;;;;;;;;;;;;;;;27.97;37.47;101834.59;5020506;28;98939;-77
2021/07/22 07:25:45;;;;;;;;;;;;;;;27.47;38.29;101843.72;5013631;28;98594;-76
2021/07/22 07:28:12;;;;;;;;;;;;;;;28.01;37.52;101840.63;5022126;28;98944;-75
2021/07/22 07:30:38;;;;;;;;;;;;;;;28.19;37.37;101835.38;5010939;28;97311;-76
2021/07/22 07:33:05;;;;;;;;;;;;;;;28.09;37.85;101838.88;5021634;27;97726;-77
2021/07/22 07:35:31;;;;;;;;;;;;;;;28.67;37.09;101836.22;5014661;28;99507;-76
2021/07/22 07:37:59;;;;;;;;;;;;;;;28.62;37.04;101829.50;5022743;28;96845;-77
2021/07/22 07:40:25;;;;;;;;;;;;;;;28.46;36.91;101839.09;5020950;27;96918;-75
2021/07/22 07:42:52;;;;;;;;;;;;;;;28.61;36.41;101831.34;5014408;28;99286;-76
2021/07/22 07:45:18;;;;;;;;;;;;;;;28.62;36.23;101832.22;5013312;28;98957;-77
2021/07/22 07:47:45;;;;;;;;;;;;;;;28.91;35.90;101839.34;5023081;27;98602;-78
2021/07/22 07:50:11;;;;;;;;;;;;;;;29.10;35.66;101838.41;5016298;27;96873;-76
2021/07/22 07:52:39;;;;;;;;;;;;;;;29.06;35.60;101838.88;5019524;28;97782;-78
2021/07/22 07:55:08;;;;;;;;;;;;;;;29.37;35.15;101840.34;5015657;28;99166;-78
2021/07/22 07:57:34;;;;;;;;;;;;;;;29.68;34.62;101836.31;5023545;28;97817;-76
2021/07/22 08:00:00;;;;;;;;;;;;;;;29.06;35.78;101837.00;5016244;28;97026;-76
2021/07/22 08:02:27;;;;;;;;;;;;;;;28.61;36.47;101828.63;5008462;28;99257;-75
2021/07/22 08:04:54;;;;;;;;;;;;;;;28.49;36.92;101833.34;5020475;28;99181;-77
2021/07/22 08:07:20;;;;;;;;;;;;;;;29.21;36.20;101829.22;5023436;27;96984;-75
2021/07/22 08:09:47;;;;;;;;;;;;;;;29.28;35.74;101825.72;5020175;27;97001;-76
2021/07/22 08:12:15;;;;;;;;;;;;;;;29.43;35.66;101822.56;5019194;28;99578;-75
2021/07/22 08:14:42;;;;;;;;;;;;;;;29.70;34.00;101822.56;4999284;28;98554;-76
2021/07/22 08:17:08;;;;;;;;;;;;;;;29.21;35.39;101821.91;5018849;28;98502;-76
2021/07/22 08:19:34;;;;;;;;;;;;;;;29.38;35.06;101817.56;5021862;27;97212;-76
2021/07/22 08:22:04;;;;;;;;;;;;;;;28.99;35.65;101824.13;5028668;27;99080;-76
2021/07/22 08:24:30;;;;;;;;;;;;;;;29.66;34.59;101819.28;5018435;28;98998;-76
2021/07/22 08:26:57;;;;;;;;;;;;;;;29.36;34.72;101816.84;5022169;28;97172;-76
2021/07/22 08:29:24;;;;;;;;;;;;;;;28.92;35.26;101813.84;5022122;27;96896;-77
2021/07/22 08:31:51;;;;;;;;;;;;;;;28.58;36.57;101820.75;5022604;27;101735;-77
2021/07/22 08:34:17;;;;;;;;;;;;;;;29.22;34.66;101810.00;5020399;28;98781;-77
2021/07/22 08:36:44;;;;;;;;;;;;;;;29.63;34.22;101803.25;5022626;28;96855;-77
2021/07/22 08:39:10;;;;;;;;;;;;;;;29.79;34.29;101807.16;5019654;28;97468;-76
2021/07/22 08:41:37;;;;;;;;;;;;;;;29.33;34.49;101808.97;5018808;28;98824;-76
2021/07/22 08:44:10;;;;;;;;;;;;;;;29.08;35.16;101806.94;5023700;28;98178;-77
2021/07/22 08:46:40;;;;;;;;;;;;;;;28.97;35.57;101796.22;5019990;28;97012;-78
2021/07/22 08:49:07;;;;;;;;;;;;;;;28.91;35.33;101800.38;5021906;28;98597;-77
2021/07/22 08:51:33;;;;;;;;;;;;;;;28.74;36.16;101792.97;5014094;27;98991;-77
2021/07/22 08:54:02;;;;;;;;;;;;;;;29.10;35.09;101800.31;5017369;28;104844;-76
2021/07/22 08:56:29;;;;;;;;;;;;;;;29.03;35.54;101792.91;5023642;28;96854;-77
2021/07/22 08:58:56;;;;;;;;;;;;;;;29.17;34.90;101800.56;5034759;28;97541;-77
2021/07/22 09:01:27;;;;;;;;;;;;;;;29.31;34.60;101800.09;5030249;27;99320;-77
2021/07/22 09:03:54;;;;;;;;;;;;;;;29.27;34.57;101798.69;5022328;27;98745;-78
2021/07/22 09:06:21;;;;;;;;;;;;;;;29.07;34.93;101799.78;5017608;28;96976;-77
2021/07/22 09:08:47;;;;;;;;;;;;;;;29.38;34.39;101792.22;5016565;28;96853;-76
2021/07/22 09:11:14;;;;;;;;;;;;;;;29.22;33.93;101792.81;5016713;28;100847;-78
2021/07/22 09:13:43;;;;;;;;;;;;;;;29.54;33.56;101787.81;5020694;28;98071;-77
2021/07/22 09:16:09;;;;;;;;;;;;;;;29.13;34.24;101800.03;5022516;27;98037;-78
2021/07/22 09:18:38;;;;;;;;;;;;;;;29.28;33.84;101794.94;5025272;27;97113;-77
2021/07/22 09:21:22;;;;;;;;;;;;;;;29.16;33.40;101797.00;5022085;28;98887;-78
2021/07/22 09:24:07;;;;;;;;;;;;;;;29.41;33.63;101795.47;5015300;28;100563;-77
2021/07/22 09:26:34;;;;;;;;;;;;;;;29.69;33.40;101794.47;5021799;28;97213;-77
2021/07/22 09:29:03;;;;;;;;;;;;;;;29.64;33.92;101788.63;5022801;28;96939;-78
2021/07/22 09:31:29;;;;;;;;;;;;;;;29.48;34.04;101793.84;5016093;28;100828;-78
2021/07/22 09:33:56;;;;;;;;;;;;;;;29.73;33.26;101791.44;5027032;28;98996;-77
2021/07/22 09:36:33;;;;;;;;;;;;;;;30.12;32.48;101792.91;5020573;27;97161;-77
2021/07/22 09:39:14;;;;;;;;;;;;;;;30.53;32.25;101787.78;5023308;28;98838;-76
2021/07/22 09:41:40;;;;;;;;;;;;;;;30.46;32.48;101784.81;5023524;28;99338;-76
2021/07/22 09:44:06;;;;;;;;;;;;;;;30.62;32.42;101787.72;5026393;28;98936;-77
2021/07/22 09:46:40;;;;;;;;;;;;;;;29.83;32.86;101782.19;5043693;28;97003;-79
2021/07/22 09:49:08;;;;;;;;;;;;;;;29.86;31.94;101781.03;5021580;28;98412;-77
2021/07/22 09:51:37;;;;;;;;;;;;;;;30.01;31.97;101782.22;5022804;28;97745;-77
2021/07/22 09:54:06;;;;;;;;;;;;;;;29.98;31.57;101783.41;5023899;28;99420;-77
2021/07/22 09:56:35;;;;;;;;;;;;;;;29.38;32.51;101774.00;5022897;28;97164;-77
2021/07/22 09:59:02;;;;;;;;;;;;;;;29.08;33.07;101777.84;5027849;28;96849;-77
2021/07/22 10:01:28;;;;;;;;;;;;;;;29.07;33.79;101783.44;5034537;27;99649;-77
2021/07/22 10:03:55;;;;;;;;;;;;;;;28.81;34.25;101785.97;5038534;28;97808;-77
2021/07/22 10:06:22;;;;;;;;;;;;;;;28.49;34.68;101787.13;5049078;28;96812;-77
2021/07/22 10:08:50;;;;;;;;;;;;;;;28.49;34.76;101789.00;5038852;28;96781;-76
2021/07/22 10:11:17;;;;;;;;;;;;;;;27.99;35.99;101780.13;5041363;28;97833;-76
2021/07/22 10:13:45;;;;;;;;;;;;;;;28.07;36.21;101778.41;5045434;28;97696;-77
2021/07/22 10:16:12;;;;;;;;;;;;;;;27.99;36.48;101777.41;5054031;27;96444;-77
2021/07/22 10:18:41;;;;;;;;;;;;;;;27.76;37.07;101784.97;5039681;28;97043;-77
2021/07/22 10:21:08;;;;;;;;;;;;;;;28.03;36.46;101776.09;5042492;28;98830;-80
2021/07/22 10:23:34;;;;;;;;;;;;;;;28.14;36.24;101790.47;5041636;28;98575;-79
2021/07/22 10:26:03;;;;;;;;;;;;;;;28.26;36.04;101779.44;5038009;28;96722;-79
2021/07/22 10:28:44;;;;;;;;;;;;;;;27.91;36.41;101778.13;5046496;27;96714;-80
2021/07/22 10:31:10;;;;;;;;;;;;;;;27.71;36.48;101777.22;5029372;28;99443;-80
2021/07/22 10:33:38;;;;;;;;;;;;;;;28.51;35.35;101778.84;5036163;28;99143;-80
2021/07/22 10:36:20;;;;;;;;;;;;;;;28.65;34.68;101778.38;5029869;27;96869;-80
2021/07/22 10:38:47;;;;;;;;;;;;;;;28.69;34.46;101774.34;5026913;27;96857;-78
2021/07/22 10:41:31;;;;;;;;;;;;;;;28.96;33.92;101770.00;5027476;27;99626;-76
2021/07/22 10:44:04;;;;;;;;;;;;;;;28.55;34.67;101767.50;5005443;28;98798;-76
2021/07/22 10:46:56;;;;;;;;;;;;;;;28.84;34.62;101772.91;5029912;28;96744;-75
2021/07/22 10:53:01;;;;;;;;;;;;;;;28.35;35.21;101765.84;4954573;28;97835;-77
2021/07/22 10:55:47;;;;;;;;;;;;;;;28.98;34.29;101766.16;5015639;28;98805;-78
2021/07/22 10:58:28;;;;;;;;;;;;;;;28.53;35.23;101765.97;5023302;28;96996;-77
2021/07/22 11:00:56;;;;;;;;;;;;;;;28.85;34.60;101773.78;5027849;28;98188;-77
2021/07/22 11:03:38;;;;;;;;;;;;;;;28.83;34.72;101765.75;5019772;27;99334;-77
2021/07/22 11:06:05;;;;;;;;;;;;;;;29.12;34.32;101764.81;5018135;28;101003;-75
2021/07/22 11:08:32;;;;;;;;;;;;;;;29.60;33.79;101756.41;5022094;27;96937;-75
2021/07/22 11:11:00;;;;;;;;;;;;;;;29.41;33.72;101756.50;5020231;27;96973;-76
2021/07/22 11:13:46;;;;;;;;;;;;;;;29.43;33.88;101759.94;5023471;28;98857;-75
2021/07/22 11:16:20;;;;;;;;;;;;;;;28.42;35.13;101766.97;5022985;28;98119;-75
2021/07/22 11:18:51;;;;;;;;;;;;;;;28.65;35.02;101756.63;5017997;28;97411;-77
2021/07/22 11:21:18;;;;;;;;;;;;;;;28.42;35.68;101756.09;5018076;28;97614;-77
2021/07/22 11:23:52;;;;;;;;;;;;;;;28.69;35.43;101755.31;5023736;28;98242;-79
2021/07/22 11:26:21;;;;;;;;;;;;;;;27.93;36.31;101753.53;5022986;28;99047;-77
2021/07/22 11:28:48;;;;;;;;;;;;;;;28.08;36.45;101755.69;5023992;27;96925;-75
2021/07/22 11:31:16;;;;;;;;;;;;;;;28.29;36.47;101754.72;5022630;27;100498;-76
2021/07/22 11:33:42;;;;;;;;;;;;;;;28.32;36.13;101754.41;5024122;28;98039;-77
2021/07/22 11:36:11;;;;;;;;;;;;;;;28.24;36.42;101751.53;5025179;28;98929;-77
2021/07/22 11:38:38;;;;;;;;;;;;;;;28.23;36.13;101756.13;5027135;28;96891;-76
2021/07/22 11:41:11;;;;;;;;;;;;;;;27.63;37.52;101754.50;5024261;28;97152;-75
2021/07/22 11:43:41;;;;;;;;;;;;;;;28.16;36.64;101749.53;5023055;28;99180;-78
2021/07/22 11:46:08;;;;;;;;;;;;;;;28.40;36.24;101744.53;5020720;28;98784;-74
2021/07/22 11:48:36;;;;;;;;;;;;;;;28.64;36.17;101746.75;5020789;28;98440;-75
2021/07/22 11:51:04;;;;;;;;;;;;;;;28.82;35.95;101746.84;5022478;28;97500;-76
2021/07/22 11:53:30;;;;;;;;;;;;;;;28.92;36.27;101734.97;5022664;28;98635;-77
2021/07/22 11:55:57;;;;;;;;;;;;;;;29.23;35.51;101734.66;5020998;28;99009;-75
2021/07/22 11:58:23;;;;;;;;;;;;;;;29.45;34.61;101739.72;5020004;28;97908;-76
2021/07/22 12:00:50;;;;;;;;;;;;;;;29.49;34.38;101735.69;5022366;27;96918;-76
2021/07/22 12:03:22;;;;;;;;;;;;;;;29.50;34.32;101736.53;5026452;27;97663;-78
2021/07/22 12:05:50;;;;;;;;;;;;;;;29.73;34.07;101735.91;5036359;28;100272;-78
2021/07/22 12:08:17;;;;;;;;;;;;;;;29.86;33.74;101730.13;5018904;28;98334;-78
2021/07/22 12:10:44;;;;;;;;;;;;;;;29.91;33.83;101732.38;5022844;28;97519;-75
2021/07/22 12:13:11;;;;;;;;;;;;;;;29.79;33.37;101730.88;5018998;28;99190;-76
2021/07/22 12:15:39;;;;;;;;;;;;;;;29.65;34.10;101738.59;5015336;28;102013;-76
2021/07/22 12:18:06;;;;;;;;;;;;;;;29.78;33.65;101729.16;5021279;28;96971;-77
2021/07/22 12:20:33;;;;;;;;;;;;;;;29.59;33.96;101730.19;5017008;28;98436;-75
2021/07/22 12:23:24;;;;;;;;;;;;;;;29.53;34.86;101733.53;5019211;28;99348;-76
2021/07/22 12:26:01;;;;;;;;;;;;;;;29.14;34.97;101728.28;5022369;28;99656;-77
2021/07/22 12:28:28;;;;;;;;;;;;;;;28.86;35.23;101731.97;5021135;28;97712;-77
2021/07/22 12:30:55;;;;;;;;;;;;;;;28.60;35.51;101736.31;5021295;27;97214;-79
2021/07/22 12:33:25;;;;;;;;;;;;;;;28.48;35.92;101733.78;5018937;27;99209;-77
2021/07/22 12:35:53;;;;;;;;;;;;;;;27.76;37.09;101727.94;5023514;28;98587;-79
2021/07/22 12:38:31;;;;;;;;;;;;;;;27.78;37.39;101725.94;5016349;28;96863;-77
2021/07/22 12:41:07;;;;;;;;;;;;;;;27.52;37.83;101719.31;5027631;28;98384;-78